Hlavní strana
METAR-TAF:

METAR-TAF

Letiště :

Norrköping, Švédsko

zeměpisná šířka: 58-35N, zeměpisná délka: 016-09E, výška: 34 m

Aktuální stav počasí

Zpráva byla vytvořena před 26 minutami, v 07:20 UTC
Severovýchodní vítr 4 kt
Teplota -1°C
Vlhkost vzduchu 93%
Tlak 1035 hPa
Viditelnost 10 km a více

METAR: ESSP 150720Z AUTO 04004KT 9999 SCT009/// OVC033/// M01/M02 Q1035

Čas: 08:46 (07:46 UTC)

Předpověď počasí

Zpráva byla vytvořena před 3 hodinami a 16 minutami, v 04:30 UTC
Předpověď platná od 15 v 05 UTC do 15 v 07 UTC
Východoseverovýchodní vítr 5 kt
Viditelnost 10 km a více
Oblačno až skoro zataženo ve výšce 1500 ft
Pravděpodobnost 40%
od 15 v 05 UTC do 15 v 07 UTC
Viditelnost: 4000 m
Oblačno až skoro zataženo ve výšce 900 ft
slabé sněžení

TAF: ESSP 150430Z 1505/1507 06005KT 9999 BKN015 PROB40 1505/1507 4000 -SN BKN009

Stav a předpovědi počasí z více než 4 000 letišť (zprávy METAR a TAF).

Červené a žluté tečky na mapě představují dostupné meteorologické stanice.

Když kurzor umístíte na tečku, zobrazí se název stanice.

Pak kliknutím zobrazíte stav a předpověď počasí.

Chcete-li změnit mapu, kliknutím na zelené tlačítko se znaménkem +mapu přiblížíte, kliknutím na zelené tlačítko se znaménkem – mapu oddálíte a kliknutím na zelené šipky přejdete na sousední mapy.


METAR-TAF: